sensor_id;sensor_type;location;lat;lon;timestamp;P1;durP1;ratioP1;P2;durP2;ratioP2
58643;SDS011;44411;49.994;8.660;2023-07-13T00:01:54;3.53;;;1.40;;
58643;SDS011;44411;49.994;8.660;2023-07-13T00:04:20;4.25;;;1.38;;
58643;SDS011;44411;49.994;8.660;2023-07-13T00:06:46;2.58;;;1.20;;
58643;SDS011;44411;49.994;8.660;2023-07-13T00:09:12;3.53;;;1.35;;
58643;SDS011;44411;49.994;8.660;2023-07-13T00:11:38;2.30;;;1.20;;
58643;SDS011;44411;49.994;8.660;2023-07-13T00:14:04;3.15;;;1.30;;
58643;SDS011;44411;49.994;8.660;2023-07-13T00:16:29;3.63;;;1.43;;
58643;SDS011;44411;49.994;8.660;2023-07-13T00:18:54;2.47;;;1.47;;
58643;SDS011;44411;49.994;8.660;2023-07-13T00:21:19;4.40;;;1.40;;
58643;SDS011;44411;49.994;8.660;2023-07-13T00:23:44;3.60;;;1.50;;
58643;SDS011;44411;49.994;8.660;2023-07-13T00:26:10;2.83;;;1.40;;
58643;SDS011;44411;49.994;8.660;2023-07-13T00:28:36;5.35;;;2.15;;
58643;SDS011;44411;49.994;8.660;2023-07-13T00:31:02;2.35;;;1.40;;
58643;SDS011;44411;49.994;8.660;2023-07-13T00:33:28;2.30;;;1.30;;
58643;SDS011;44411;49.994;8.660;2023-07-13T00:35:54;1.73;;;1.13;;
58643;SDS011;44411;49.994;8.660;2023-07-13T00:38:19;3.03;;;1.40;;
58643;SDS011;44411;49.994;8.660;2023-07-13T00:40:44;2.97;;;1.13;;
58643;SDS011;44411;49.994;8.660;2023-07-13T00:43:13;3.92;;;1.40;;
58643;SDS011;44411;49.994;8.660;2023-07-13T00:48:08;8.20;;;2.05;;
58643;SDS011;44411;49.994;8.660;2023-07-13T00:50:33;4.45;;;1.55;;
58643;SDS011;44411;49.994;8.660;2023-07-13T00:52:58;3.87;;;1.30;;
58643;SDS011;44411;49.994;8.660;2023-07-13T00:55:24;3.90;;;1.40;;
58643;SDS011;44411;49.994;8.660;2023-07-13T00:57:49;4.22;;;1.52;;
58643;SDS011;44411;49.994;8.660;2023-07-13T01:00:14;3.63;;;1.60;;
58643;SDS011;44411;49.994;8.660;2023-07-13T01:02:41;4.18;;;1.63;;
58643;SDS011;44411;49.994;8.660;2023-07-13T01:05:10;4.00;;;1.30;;
58643;SDS011;44411;49.994;8.660;2023-07-13T01:07:36;3.28;;;1.48;;
58643;SDS011;44411;49.994;8.660;2023-07-13T01:10:02;3.27;;;1.63;;
58643;SDS011;44411;49.994;8.660;2023-07-13T01:12:27;1.90;;;1.23;;
58643;SDS011;44411;49.994;8.660;2023-07-13T01:14:59;3.07;;;1.43;;
58643;SDS011;44411;49.994;8.660;2023-07-13T01:17:25;5.13;;;1.60;;
58643;SDS011;44411;49.994;8.660;2023-07-13T01:19:51;3.53;;;1.63;;
58643;SDS011;44411;49.994;8.660;2023-07-13T01:22:17;1.55;;;1.10;;
58643;SDS011;44411;49.994;8.660;2023-07-13T01:24:44;4.43;;;1.30;;
58643;SDS011;44411;49.994;8.660;2023-07-13T01:27:10;3.03;;;1.30;;
58643;SDS011;44411;49.994;8.660;2023-07-13T01:29:36;2.80;;;1.20;;
58643;SDS011;44411;49.994;8.660;2023-07-13T01:32:07;1.80;;;1.10;;
58643;SDS011;44411;49.994;8.660;2023-07-13T01:34:33;2.63;;;1.30;;
58643;SDS011;44411;49.994;8.660;2023-07-13T01:36:58;3.37;;;1.10;;
58643;SDS011;44411;49.994;8.660;2023-07-13T01:39:23;2.47;;;1.17;;
58643;SDS011;44411;49.994;8.660;2023-07-13T01:41:48;3.23;;;1.20;;
58643;SDS011;44411;49.994;8.660;2023-07-13T01:44:14;4.63;;;1.40;;
58643;SDS011;44411;49.994;8.660;2023-07-13T01:46:39;3.37;;;1.10;;
58643;SDS011;44411;49.994;8.660;2023-07-13T01:49:04;4.00;;;1.20;;
58643;SDS011;44411;49.994;8.660;2023-07-13T01:51:29;2.67;;;1.20;;
58643;SDS011;44411;49.994;8.660;2023-07-13T01:53:54;2.37;;;1.10;;
58643;SDS011;44411;49.994;8.660;2023-07-13T01:56:20;1.87;;;1.03;;
58643;SDS011;44411;49.994;8.660;2023-07-13T01:58:45;2.75;;;0.98;;
58643;SDS011;44411;49.994;8.660;2023-07-13T02:01:10;1.98;;;1.13;;
58643;SDS011;44411;49.994;8.660;2023-07-13T02:03:35;4.10;;;1.43;;
58643;SDS011;44411;49.994;8.660;2023-07-13T02:06:01;2.10;;;1.20;;
58643;SDS011;44411;49.994;8.660;2023-07-13T02:08:26;4.63;;;1.40;;
58643;SDS011;44411;49.994;8.660;2023-07-13T02:10:51;2.22;;;1.23;;
58643;SDS011;44411;49.994;8.660;2023-07-13T02:13:16;2.70;;;1.30;;
58643;SDS011;44411;49.994;8.660;2023-07-13T02:15:42;4.55;;;1.50;;
58643;SDS011;44411;49.994;8.660;2023-07-13T02:18:07;2.45;;;1.50;;
58643;SDS011;44411;49.994;8.660;2023-07-13T02:20:32;3.93;;;1.50;;
58643;SDS011;44411;49.994;8.660;2023-07-13T02:22:57;3.77;;;1.50;;
58643;SDS011;44411;49.994;8.660;2023-07-13T02:25:22;5.10;;;1.50;;
58643;SDS011;44411;49.994;8.660;2023-07-13T02:27:48;3.63;;;1.60;;
58643;SDS011;44411;49.994;8.660;2023-07-13T02:30:13;2.93;;;1.37;;
58643;SDS011;44411;49.994;8.660;2023-07-13T02:32:39;3.10;;;1.35;;
58643;SDS011;44411;49.994;8.660;2023-07-13T02:35:04;2.20;;;1.20;;
58643;SDS011;44411;49.994;8.660;2023-07-13T02:37:29;3.50;;;1.30;;
58643;SDS011;44411;49.994;8.660;2023-07-13T02:39:55;4.37;;;1.60;;
58643;SDS011;44411;49.994;8.660;2023-07-13T02:42:20;3.05;;;1.58;;
58643;SDS011;44411;49.994;8.660;2023-07-13T02:44:45;2.83;;;1.40;;
58643;SDS011;44411;49.994;8.660;2023-07-13T02:47:11;3.55;;;1.80;;
58643;SDS011;44411;49.994;8.660;2023-07-13T02:49:36;4.20;;;1.70;;
58643;SDS011;44411;49.994;8.660;2023-07-13T02:52:01;2.63;;;1.37;;
58643;SDS011;44411;49.994;8.660;2023-07-13T02:54:27;3.33;;;1.60;;
58643;SDS011;44411;49.994;8.660;2023-07-13T02:56:52;3.47;;;1.47;;
58643;SDS011;44411;49.994;8.660;2023-07-13T02:59:17;2.95;;;1.45;;
58643;SDS011;44411;49.994;8.660;2023-07-13T03:01:43;2.53;;;1.33;;
58643;SDS011;44411;49.994;8.660;2023-07-13T03:04:08;4.67;;;1.90;;
58643;SDS011;44411;49.994;8.660;2023-07-13T03:06:33;2.43;;;1.40;;
58643;SDS011;44411;49.994;8.660;2023-07-13T03:08:58;3.67;;;1.60;;
58643;SDS011;44411;49.994;8.660;2023-07-13T03:11:25;4.03;;;2.00;;
58643;SDS011;44411;49.994;8.660;2023-07-13T03:13:51;7.35;;;1.80;;
58643;SDS011;44411;49.994;8.660;2023-07-13T03:16:16;3.78;;;1.55;;
58643;SDS011;44411;49.994;8.660;2023-07-13T03:18:42;5.27;;;1.83;;
58643;SDS011;44411;49.994;8.660;2023-07-13T03:21:07;6.87;;;2.33;;
58643;SDS011;44411;49.994;8.660;2023-07-13T03:23:32;4.53;;;1.52;;
58643;SDS011;44411;49.994;8.660;2023-07-13T03:26:01;2.00;;;1.40;;
58643;SDS011;44411;49.994;8.660;2023-07-13T03:28:27;3.30;;;1.60;;
58643;SDS011;44411;49.994;8.660;2023-07-13T03:30:58;2.90;;;1.80;;
58643;SDS011;44411;49.994;8.660;2023-07-13T03:33:24;2.65;;;1.50;;
58643;SDS011;44411;49.994;8.660;2023-07-13T03:35:49;4.30;;;2.23;;
58643;SDS011;44411;49.994;8.660;2023-07-13T03:38:14;5.13;;;1.97;;
58643;SDS011;44411;49.994;8.660;2023-07-13T03:40:39;5.60;;;2.03;;
58643;SDS011;44411;49.994;8.660;2023-07-13T03:43:05;5.57;;;1.48;;
58643;SDS011;44411;49.994;8.660;2023-07-13T03:45:30;4.93;;;1.93;;
58643;SDS011;44411;49.994;8.660;2023-07-13T03:47:55;3.43;;;1.73;;
58643;SDS011;44411;49.994;8.660;2023-07-13T03:50:20;3.67;;;1.77;;
58643;SDS011;44411;49.994;8.660;2023-07-13T03:52:45;4.87;;;1.93;;
58643;SDS011;44411;49.994;8.660;2023-07-13T03:55:11;3.70;;;1.97;;
58643;SDS011;44411;49.994;8.660;2023-07-13T03:57:36;4.15;;;2.00;;
58643;SDS011;44411;49.994;8.660;2023-07-13T04:00:01;4.07;;;1.90;;
58643;SDS011;44411;49.994;8.660;2023-07-13T04:02:26;3.83;;;1.70;;
58643;SDS011;44411;49.994;8.660;2023-07-13T04:04:52;5.43;;;2.17;;
58643;SDS011;44411;49.994;8.660;2023-07-13T04:07:18;4.47;;;1.58;;
58643;SDS011;44411;49.994;8.660;2023-07-13T04:09:43;6.13;;;2.28;;
58643;SDS011;44411;49.994;8.660;2023-07-13T04:12:09;5.00;;;2.43;;
58643;SDS011;44411;49.994;8.660;2023-07-13T04:14:34;4.30;;;2.40;;
58643;SDS011;44411;49.994;8.660;2023-07-13T04:16:59;5.00;;;2.00;;
58643;SDS011;44411;49.994;8.660;2023-07-13T04:19:24;4.27;;;1.90;;
58643;SDS011;44411;49.994;8.660;2023-07-13T04:21:49;3.10;;;1.83;;
58643;SDS011;44411;49.994;8.660;2023-07-13T04:24:15;3.37;;;1.80;;
58643;SDS011;44411;49.994;8.660;2023-07-13T04:26:40;3.45;;;1.85;;
58643;SDS011;44411;49.994;8.660;2023-07-13T04:29:05;6.70;;;1.97;;
58643;SDS011;44411;49.994;8.660;2023-07-13T04:31:31;3.55;;;2.10;;
58643;SDS011;44411;49.994;8.660;2023-07-13T04:33:56;4.65;;;2.40;;
58643;SDS011;44411;49.994;8.660;2023-07-13T04:36:22;5.17;;;1.90;;
58643;SDS011;44411;49.994;8.660;2023-07-13T04:38:47;3.88;;;1.70;;
58643;SDS011;44411;49.994;8.660;2023-07-13T04:41:12;3.15;;;1.70;;
58643;SDS011;44411;49.994;8.660;2023-07-13T04:43:38;4.38;;;1.70;;
58643;SDS011;44411;49.994;8.660;2023-07-13T04:46:04;6.85;;;1.85;;
58643;SDS011;44411;49.994;8.660;2023-07-13T04:48:30;4.32;;;2.00;;
58643;SDS011;44411;49.994;8.660;2023-07-13T04:50:56;5.77;;;1.90;;
58643;SDS011;44411;49.994;8.660;2023-07-13T04:53:21;4.13;;;1.92;;
58643;SDS011;44411;49.994;8.660;2023-07-13T04:55:46;5.27;;;2.27;;
58643;SDS011;44411;49.994;8.660;2023-07-13T04:58:12;5.70;;;2.07;;
58643;SDS011;44411;49.994;8.660;2023-07-13T05:00:37;3.15;;;1.52;;
58643;SDS011;44411;49.994;8.660;2023-07-13T05:03:02;6.20;;;2.60;;
58643;SDS011;44411;49.994;8.660;2023-07-13T05:05:27;3.77;;;1.80;;
58643;SDS011;44411;49.994;8.660;2023-07-13T05:07:53;3.72;;;1.75;;
58643;SDS011;44411;49.994;8.660;2023-07-13T05:10:18;3.65;;;1.83;;
58643;SDS011;44411;49.994;8.660;2023-07-13T05:12:44;3.72;;;1.83;;
58643;SDS011;44411;49.994;8.660;2023-07-13T05:15:10;4.90;;;2.15;;
58643;SDS011;44411;49.994;8.660;2023-07-13T05:17:35;3.17;;;1.88;;
58643;SDS011;44411;49.994;8.660;2023-07-13T05:20:00;4.72;;;1.90;;
58643;SDS011;44411;49.994;8.660;2023-07-13T05:22:26;4.60;;;1.70;;
58643;SDS011;44411;49.994;8.660;2023-07-13T05:24:51;7.97;;;1.90;;
58643;SDS011;44411;49.994;8.660;2023-07-13T05:27:16;3.03;;;1.43;;
58643;SDS011;44411;49.994;8.660;2023-07-13T05:29:41;4.38;;;1.80;;
58643;SDS011;44411;49.994;8.660;2023-07-13T05:32:07;3.75;;;1.90;;
58643;SDS011;44411;49.994;8.660;2023-07-13T05:34:32;3.42;;;1.70;;
58643;SDS011;44411;49.994;8.660;2023-07-13T05:36:57;4.75;;;1.73;;
58643;SDS011;44411;49.994;8.660;2023-07-13T05:39:23;6.07;;;1.80;;
58643;SDS011;44411;49.994;8.660;2023-07-13T05:41:48;4.72;;;1.60;;
58643;SDS011;44411;49.994;8.660;2023-07-13T05:44:13;3.17;;;1.80;;
58643;SDS011;44411;49.994;8.660;2023-07-13T05:46:38;6.15;;;2.85;;
58643;SDS011;44411;49.994;8.660;2023-07-13T05:49:04;2.80;;;1.50;;
58643;SDS011;44411;49.994;8.660;2023-07-13T05:51:29;3.57;;;1.40;;
58643;SDS011;44411;49.994;8.660;2023-07-13T05:53:54;4.43;;;1.23;;
58643;SDS011;44411;49.994;8.660;2023-07-13T05:56:19;5.47;;;2.00;;
58643;SDS011;44411;49.994;8.660;2023-07-13T05:58:44;4.90;;;1.53;;
58643;SDS011;44411;49.994;8.660;2023-07-13T06:01:11;2.47;;;1.33;;
58643;SDS011;44411;49.994;8.660;2023-07-13T06:03:36;4.13;;;1.80;;
58643;SDS011;44411;49.994;8.660;2023-07-13T06:06:03;5.72;;;1.90;;
58643;SDS011;44411;49.994;8.660;2023-07-13T06:08:29;5.47;;;1.60;;
58643;SDS011;44411;49.994;8.660;2023-07-13T06:10:54;2.00;;;0.90;;
58643;SDS011;44411;49.994;8.660;2023-07-13T06:13:19;2.80;;;1.30;;
58643;SDS011;44411;49.994;8.660;2023-07-13T06:15:50;2.03;;;1.17;;
58643;SDS011;44411;49.994;8.660;2023-07-13T06:18:15;2.40;;;0.98;;
58643;SDS011;44411;49.994;8.660;2023-07-13T06:20:41;2.83;;;1.17;;
58643;SDS011;44411;49.994;8.660;2023-07-13T06:23:06;5.45;;;1.75;;
58643;SDS011;44411;49.994;8.660;2023-07-13T06:25:31;4.07;;;1.23;;
58643;SDS011;44411;49.994;8.660;2023-07-13T06:27:56;2.93;;;1.40;;
58643;SDS011;44411;49.994;8.660;2023-07-13T06:30:21;5.23;;;1.67;;
58643;SDS011;44411;49.994;8.660;2023-07-13T06:32:47;3.67;;;0.90;;
58643;SDS011;44411;49.994;8.660;2023-07-13T06:35:12;2.37;;;1.10;;
58643;SDS011;44411;49.994;8.660;2023-07-13T06:37:38;1.02;;;0.73;;
58643;SDS011;44411;49.994;8.660;2023-07-13T06:40:03;3.42;;;1.00;;
58643;SDS011;44411;49.994;8.660;2023-07-13T06:42:29;2.10;;;0.93;;
58643;SDS011;44411;49.994;8.660;2023-07-13T06:44:54;1.83;;;0.80;;
58643;SDS011;44411;49.994;8.660;2023-07-13T06:47:19;3.60;;;0.90;;
58643;SDS011;44411;49.994;8.660;2023-07-13T06:49:45;2.43;;;0.90;;
58643;SDS011;44411;49.994;8.660;2023-07-13T06:52:10;3.63;;;0.80;;
58643;SDS011;44411;49.994;8.660;2023-07-13T06:54:35;1.93;;;0.80;;
58643;SDS011;44411;49.994;8.660;2023-07-13T06:57:00;3.93;;;0.70;;
58643;SDS011;44411;49.994;8.660;2023-07-13T06:59:25;2.83;;;0.83;;
58643;SDS011;44411;49.994;8.660;2023-07-13T07:01:51;2.63;;;0.90;;
58643;SDS011;44411;49.994;8.660;2023-07-13T07:04:16;2.30;;;0.60;;
58643;SDS011;44411;49.994;8.660;2023-07-13T07:06:41;2.50;;;0.70;;
58643;SDS011;44411;49.994;8.660;2023-07-13T07:09:06;3.80;;;0.87;;
58643;SDS011;44411;49.994;8.660;2023-07-13T07:11:31;2.93;;;0.80;;
58643;SDS011;44411;49.994;8.660;2023-07-13T07:13:57;2.10;;;0.83;;
58643;SDS011;44411;49.994;8.660;2023-07-13T07:16:23;2.13;;;0.60;;
58643;SDS011;44411;49.994;8.660;2023-07-13T07:18:49;1.75;;;0.52;;
58643;SDS011;44411;49.994;8.660;2023-07-13T07:21:14;1.35;;;0.80;;
58643;SDS011;44411;49.994;8.660;2023-07-13T07:23:40;1.25;;;0.77;;
58643;SDS011;44411;49.994;8.660;2023-07-13T07:26:05;4.35;;;0.95;;
58643;SDS011;44411;49.994;8.660;2023-07-13T07:28:32;1.48;;;1.00;;
58643;SDS011;44411;49.994;8.660;2023-07-13T07:30:58;4.37;;;1.10;;
58643;SDS011;44411;49.994;8.660;2023-07-13T07:33:23;3.33;;;0.80;;
58643;SDS011;44411;49.994;8.660;2023-07-13T07:35:49;2.13;;;1.00;;
58643;SDS011;44411;49.994;8.660;2023-07-13T07:38:14;1.63;;;0.70;;
58643;SDS011;44411;49.994;8.660;2023-07-13T07:40:40;1.73;;;0.80;;
58643;SDS011;44411;49.994;8.660;2023-07-13T07:43:09;3.72;;;0.70;;
58643;SDS011;44411;49.994;8.660;2023-07-13T07:45:34;4.20;;;1.02;;
58643;SDS011;44411;49.994;8.660;2023-07-13T07:48:00;2.42;;;0.60;;
58643;SDS011;44411;49.994;8.660;2023-07-13T07:50:25;1.87;;;0.70;;
58643;SDS011;44411;49.994;8.660;2023-07-13T07:52:57;3.13;;;1.15;;
58643;SDS011;44411;49.994;8.660;2023-07-13T07:55:23;2.50;;;0.80;;
58643;SDS011;44411;49.994;8.660;2023-07-13T07:57:49;2.80;;;0.82;;
58643;SDS011;44411;49.994;8.660;2023-07-13T08:00:14;2.90;;;0.95;;
58643;SDS011;44411;49.994;8.660;2023-07-13T08:02:40;2.92;;;0.85;;
58643;SDS011;44411;49.994;8.660;2023-07-13T08:05:06;3.17;;;0.90;;
58643;SDS011;44411;49.994;8.660;2023-07-13T08:07:31;2.22;;;0.63;;
58643;SDS011;44411;49.994;8.660;2023-07-13T08:09:57;3.25;;;1.00;;
58643;SDS011;44411;49.994;8.660;2023-07-13T08:12:22;3.33;;;1.90;;
58643;SDS011;44411;49.994;8.660;2023-07-13T08:14:49;2.57;;;1.03;;
58643;SDS011;44411;49.994;8.660;2023-07-13T08:17:18;2.00;;;1.08;;
58643;SDS011;44411;49.994;8.660;2023-07-13T08:19:43;1.97;;;0.80;;
58643;SDS011;44411;49.994;8.660;2023-07-13T08:22:08;2.07;;;1.00;;
58643;SDS011;44411;49.994;8.660;2023-07-13T08:24:33;1.83;;;0.80;;
58643;SDS011;44411;49.994;8.660;2023-07-13T08:26:59;2.92;;;1.02;;
58643;SDS011;44411;49.994;8.660;2023-07-13T08:29:24;2.73;;;1.03;;
58643;SDS011;44411;49.994;8.660;2023-07-13T08:31:49;1.83;;;0.90;;
58643;SDS011;44411;49.994;8.660;2023-07-13T08:34:15;2.20;;;0.90;;
58643;SDS011;44411;49.994;8.660;2023-07-13T08:36:40;1.53;;;0.80;;
58643;SDS011;44411;49.994;8.660;2023-07-13T08:39:06;1.08;;;0.60;;
58643;SDS011;44411;49.994;8.660;2023-07-13T08:41:31;1.30;;;0.55;;
58643;SDS011;44411;49.994;8.660;2023-07-13T08:43:58;5.70;;;0.85;;
58643;SDS011;44411;49.994;8.660;2023-07-13T08:48:50;3.37;;;0.87;;
58643;SDS011;44411;49.994;8.660;2023-07-13T08:54:01;2.17;;;0.93;;
58643;SDS011;44411;49.994;8.660;2023-07-13T08:56:27;2.47;;;0.85;;
58643;SDS011;44411;49.994;8.660;2023-07-13T08:58:55;1.67;;;0.73;;
58643;SDS011;44411;49.994;8.660;2023-07-13T09:01:33;1.92;;;0.93;;
58643;SDS011;44411;49.994;8.660;2023-07-13T09:06:35;1.88;;;0.88;;
58643;SDS011;44411;49.994;8.660;2023-07-13T09:09:02;2.25;;;0.75;;
58643;SDS011;44411;49.994;8.660;2023-07-13T09:11:42;2.45;;;0.82;;
58643;SDS011;44411;49.994;8.660;2023-07-13T09:17:02;2.25;;;0.70;;
58643;SDS011;44411;49.994;8.660;2023-07-13T09:19:28;3.45;;;0.85;;
58643;SDS011;44411;49.994;8.660;2023-07-13T09:21:55;3.05;;;0.75;;
58643;SDS011;44411;49.994;8.660;2023-07-13T09:27:13;2.03;;;0.50;;
58643;SDS011;44411;49.994;8.660;2023-07-13T09:29:42;0.88;;;0.43;;
58643;SDS011;44411;49.994;8.660;2023-07-13T09:32:10;2.40;;;0.65;;
58643;SDS011;44411;49.994;8.660;2023-07-13T09:34:38;1.55;;;0.60;;
58643;SDS011;44411;49.994;8.660;2023-07-13T09:37:03;3.70;;;0.80;;
58643;SDS011;44411;49.994;8.660;2023-07-13T09:39:30;2.22;;;0.65;;
58643;SDS011;44411;49.994;8.660;2023-07-13T09:44:29;1.85;;;0.73;;
58643;SDS011;44411;49.994;8.660;2023-07-13T09:46:56;2.90;;;0.73;;
58643;SDS011;44411;49.994;8.660;2023-07-13T09:49:34;3.60;;;1.10;;
58643;SDS011;44411;49.994;8.660;2023-07-13T09:52:09;2.10;;;0.82;;
58643;SDS011;44411;49.994;8.660;2023-07-13T09:54:36;2.70;;;0.85;;
58643;SDS011;44411;49.994;8.660;2023-07-13T09:57:02;2.60;;;0.85;;
58643;SDS011;44411;49.994;8.660;2023-07-13T09:59:32;3.88;;;0.80;;
58643;SDS011;44411;49.994;8.660;2023-07-13T10:01:57;2.08;;;0.82;;
58643;SDS011;44411;49.994;8.660;2023-07-13T10:04:27;3.80;;;0.98;;
58643;SDS011;44411;49.994;8.660;2023-07-13T10:07:04;2.38;;;0.80;;
58643;SDS011;44411;49.994;8.660;2023-07-13T10:09:29;2.05;;;0.60;;
58643;SDS011;44411;49.994;8.660;2023-07-13T10:11:54;2.23;;;0.97;;
58643;SDS011;44411;49.994;8.660;2023-07-13T10:14:21;2.83;;;0.70;;
58643;SDS011;44411;49.994;8.660;2023-07-13T10:16:52;2.35;;;0.68;;
58643;SDS011;44411;49.994;8.660;2023-07-13T10:19:19;2.13;;;0.60;;
58643;SDS011;44411;49.994;8.660;2023-07-13T10:24:23;1.40;;;0.73;;
58643;SDS011;44411;49.994;8.660;2023-07-13T10:27:00;2.05;;;0.85;;
58643;SDS011;44411;49.994;8.660;2023-07-13T10:29:26;2.13;;;0.93;;
58643;SDS011;44411;49.994;8.660;2023-07-13T10:31:52;1.23;;;0.60;;
58643;SDS011;44411;49.994;8.660;2023-07-13T10:34:17;1.70;;;0.70;;
58643;SDS011;44411;49.994;8.660;2023-07-13T10:36:46;1.02;;;0.65;;
58643;SDS011;44411;49.994;8.660;2023-07-13T10:39:22;3.33;;;0.80;;
58643;SDS011;44411;49.994;8.660;2023-07-13T10:42:02;1.30;;;0.60;;
58643;SDS011;44411;49.994;8.660;2023-07-13T10:44:30;3.00;;;0.90;;
58643;SDS011;44411;49.994;8.660;2023-07-13T10:46:57;2.30;;;0.80;;
58643;SDS011;44411;49.994;8.660;2023-07-13T10:49:23;1.23;;;0.50;;
58643;SDS011;44411;49.994;8.660;2023-07-13T10:51:49;2.80;;;0.98;;
58643;SDS011;44411;49.994;8.660;2023-07-13T10:54:18;1.38;;;0.80;;
58643;SDS011;44411;49.994;8.660;2023-07-13T10:56:43;3.08;;;0.85;;
58643;SDS011;44411;49.994;8.660;2023-07-13T10:59:14;1.55;;;0.70;;
58643;SDS011;44411;49.994;8.660;2023-07-13T11:01:41;1.35;;;0.80;;
58643;SDS011;44411;49.994;8.660;2023-07-13T11:04:11;1.52;;;0.70;;
58643;SDS011;44411;49.994;8.660;2023-07-13T11:06:39;1.70;;;0.60;;
58643;SDS011;44411;49.994;8.660;2023-07-13T11:11:46;2.35;;;1.13;;
58643;SDS011;44411;49.994;8.660;2023-07-13T11:14:34;2.50;;;1.00;;
58643;SDS011;44411;49.994;8.660;2023-07-13T11:17:23;2.00;;;0.70;;
58643;SDS011;44411;49.994;8.660;2023-07-13T11:19:46;1.88;;;0.68;;
58643;SDS011;44411;49.994;8.660;2023-07-13T11:22:16;1.58;;;0.75;;
58643;SDS011;44411;49.994;8.660;2023-07-13T11:27:36;1.58;;;0.70;;
58643;SDS011;44411;49.994;8.660;2023-07-13T11:30:13;2.15;;;0.70;;
58643;SDS011;44411;49.994;8.660;2023-07-13T11:32:43;7.05;;;1.52;;
58643;SDS011;44411;49.994;8.660;2023-07-13T11:35:27;1.87;;;0.90;;
58643;SDS011;44411;49.994;8.660;2023-07-13T11:37:52;2.58;;;1.10;;
58643;SDS011;44411;49.994;8.660;2023-07-13T11:40:18;1.92;;;0.82;;
58643;SDS011;44411;49.994;8.660;2023-07-13T11:42:44;3.42;;;0.95;;
58643;SDS011;44411;49.994;8.660;2023-07-13T11:45:19;2.03;;;0.80;;
58643;SDS011;44411;49.994;8.660;2023-07-13T11:47:48;3.05;;;0.88;;
58643;SDS011;44411;49.994;8.660;2023-07-13T11:50:20;2.03;;;1.05;;
58643;SDS011;44411;49.994;8.660;2023-07-13T11:52:46;3.15;;;0.85;;
58643;SDS011;44411;49.994;8.660;2023-07-13T11:55:15;2.40;;;0.88;;
58643;SDS011;44411;49.994;8.660;2023-07-13T11:57:45;2.70;;;0.77;;
58643;SDS011;44411;49.994;8.660;2023-07-13T12:02:38;2.28;;;1.00;;
58643;SDS011;44411;49.994;8.660;2023-07-13T12:05:04;3.75;;;1.00;;
58643;SDS011;44411;49.994;8.660;2023-07-13T12:07:31;1.52;;;0.90;;
58643;SDS011;44411;49.994;8.660;2023-07-13T12:12:34;2.20;;;0.93;;
58643;SDS011;44411;49.994;8.660;2023-07-13T12:14:59;2.30;;;0.80;;
58643;SDS011;44411;49.994;8.660;2023-07-13T12:17:25;2.10;;;0.77;;
58643;SDS011;44411;49.994;8.660;2023-07-13T12:19:51;1.50;;;0.80;;
58643;SDS011;44411;49.994;8.660;2023-07-13T12:22:18;1.88;;;0.90;;
58643;SDS011;44411;49.994;8.660;2023-07-13T12:24:43;1.92;;;0.80;;
58643;SDS011;44411;49.994;8.660;2023-07-13T12:27:27;2.63;;;1.00;;
58643;SDS011;44411;49.994;8.660;2023-07-13T12:30:00;2.10;;;0.80;;
58643;SDS011;44411;49.994;8.660;2023-07-13T12:32:26;1.10;;;0.60;;
58643;SDS011;44411;49.994;8.660;2023-07-13T12:34:53;2.42;;;1.13;;
58643;SDS011;44411;49.994;8.660;2023-07-13T12:37:18;2.97;;;1.00;;
58643;SDS011;44411;49.994;8.660;2023-07-13T12:39:45;3.23;;;0.83;;
58643;SDS011;44411;49.994;8.660;2023-07-13T12:44:39;2.47;;;0.73;;
58643;SDS011;44411;49.994;8.660;2023-07-13T12:47:06;2.13;;;0.88;;
58643;SDS011;44411;49.994;8.660;2023-07-13T12:49:39;2.47;;;0.80;;
58643;SDS011;44411;49.994;8.660;2023-07-13T12:52:10;3.20;;;1.00;;
58643;SDS011;44411;49.994;8.660;2023-07-13T12:54:38;1.75;;;0.70;;
58643;SDS011;44411;49.994;8.660;2023-07-13T12:57:04;2.85;;;0.93;;
58643;SDS011;44411;49.994;8.660;2023-07-13T12:59:30;2.45;;;0.90;;
58643;SDS011;44411;49.994;8.660;2023-07-13T13:01:58;2.13;;;1.00;;
58643;SDS011;44411;49.994;8.660;2023-07-13T13:04:23;1.45;;;0.70;;
58643;SDS011;44411;49.994;8.660;2023-07-13T13:06:49;2.10;;;0.80;;
58643;SDS011;44411;49.994;8.660;2023-07-13T13:09:25;2.45;;;0.80;;
58643;SDS011;44411;49.994;8.660;2023-07-13T13:11:50;1.43;;;0.87;;
58643;SDS011;44411;49.994;8.660;2023-07-13T13:14:16;2.90;;;1.10;;
58643;SDS011;44411;49.994;8.660;2023-07-13T13:16:49;2.15;;;0.80;;
58643;SDS011;44411;49.994;8.660;2023-07-13T13:19:15;2.75;;;0.80;;
58643;SDS011;44411;49.994;8.660;2023-07-13T13:21:42;2.03;;;0.93;;
58643;SDS011;44411;49.994;8.660;2023-07-13T13:24:14;3.38;;;1.08;;
58643;SDS011;44411;49.994;8.660;2023-07-13T13:26:40;2.63;;;0.90;;
58643;SDS011;44411;49.994;8.660;2023-07-13T13:29:12;2.83;;;0.68;;
58643;SDS011;44411;49.994;8.660;2023-07-13T13:31:38;1.50;;;0.52;;
58643;SDS011;44411;49.994;8.660;2023-07-13T13:34:04;3.17;;;1.00;;
58643;SDS011;44411;49.994;8.660;2023-07-13T13:36:32;2.90;;;1.17;;
58643;SDS011;44411;49.994;8.660;2023-07-13T13:38:57;2.87;;;0.90;;
58643;SDS011;44411;49.994;8.660;2023-07-13T13:41:22;2.28;;;0.90;;
58643;SDS011;44411;49.994;8.660;2023-07-13T13:43:48;2.73;;;0.90;;
58643;SDS011;44411;49.994;8.660;2023-07-13T13:46:17;1.70;;;0.70;;
58643;SDS011;44411;49.994;8.660;2023-07-13T13:48:43;1.58;;;0.68;;
58643;SDS011;44411;49.994;8.660;2023-07-13T13:51:15;4.25;;;0.88;;
58643;SDS011;44411;49.994;8.660;2023-07-13T13:53:41;1.83;;;0.90;;
58643;SDS011;44411;49.994;8.660;2023-07-13T13:56:07;1.85;;;0.90;;
58643;SDS011;44411;49.994;8.660;2023-07-13T13:58:33;1.33;;;0.70;;
58643;SDS011;44411;49.994;8.660;2023-07-13T14:00:58;3.07;;;0.73;;
58643;SDS011;44411;49.994;8.660;2023-07-13T14:03:23;2.30;;;0.70;;
58643;SDS011;44411;49.994;8.660;2023-07-13T14:05:49;3.35;;;1.30;;
58643;SDS011;44411;49.994;8.660;2023-07-13T14:08:18;1.60;;;0.70;;
58643;SDS011;44411;49.994;8.660;2023-07-13T14:10:47;2.40;;;1.00;;
58643;SDS011;44411;49.994;8.660;2023-07-13T14:15:38;1.98;;;0.75;;
58643;SDS011;44411;49.994;8.660;2023-07-13T14:18:03;2.43;;;0.93;;
58643;SDS011;44411;49.994;8.660;2023-07-13T14:20:28;2.85;;;0.90;;
58643;SDS011;44411;49.994;8.660;2023-07-13T14:22:54;1.90;;;0.90;;
58643;SDS011;44411;49.994;8.660;2023-07-13T14:25:20;3.03;;;0.97;;
58643;SDS011;44411;49.994;8.660;2023-07-13T14:27:46;2.42;;;0.75;;
58643;SDS011;44411;49.994;8.660;2023-07-13T14:30:17;3.60;;;1.02;;
58643;SDS011;44411;49.994;8.660;2023-07-13T14:32:42;5.45;;;0.80;;
58643;SDS011;44411;49.994;8.660;2023-07-13T14:35:11;1.00;;;0.57;;
58643;SDS011;44411;49.994;8.660;2023-07-13T14:40:04;2.70;;;0.70;;
58643;SDS011;44411;49.994;8.660;2023-07-13T14:42:29;2.95;;;0.98;;
58643;SDS011;44411;49.994;8.660;2023-07-13T14:44:55;0.80;;;0.53;;
58643;SDS011;44411;49.994;8.660;2023-07-13T14:47:20;2.50;;;0.80;;
58643;SDS011;44411;49.994;8.660;2023-07-13T14:49:45;2.38;;;0.65;;
58643;SDS011;44411;49.994;8.660;2023-07-13T14:52:19;3.17;;;1.20;;
58643;SDS011;44411;49.994;8.660;2023-07-13T14:54:45;1.27;;;0.50;;
58643;SDS011;44411;49.994;8.660;2023-07-13T14:57:11;2.55;;;0.90;;
58643;SDS011;44411;49.994;8.660;2023-07-13T14:59:37;2.58;;;0.80;;
58643;SDS011;44411;49.994;8.660;2023-07-13T15:02:02;1.50;;;0.80;;
58643;SDS011;44411;49.994;8.660;2023-07-13T15:04:29;2.28;;;0.85;;
58643;SDS011;44411;49.994;8.660;2023-07-13T15:06:58;2.60;;;0.95;;
58643;SDS011;44411;49.994;8.660;2023-07-13T15:11:52;2.13;;;1.20;;
58643;SDS011;44411;49.994;8.660;2023-07-13T15:14:17;1.58;;;0.82;;
58643;SDS011;44411;49.994;8.660;2023-07-13T15:16:42;3.60;;;0.90;;
58643;SDS011;44411;49.994;8.660;2023-07-13T15:19:09;3.38;;;0.95;;
58643;SDS011;44411;49.994;8.660;2023-07-13T15:21:34;4.53;;;0.93;;
58643;SDS011;44411;49.994;8.660;2023-07-13T15:24:02;4.05;;;1.52;;
58643;SDS011;44411;49.994;8.660;2023-07-13T15:26:27;3.88;;;0.82;;